createdAt,value
2022-11-20T00:00:46.733Z,4.88
2022-11-20T00:03:53.992Z,6.25
2022-11-20T00:06:58.903Z,5.72
2022-11-20T00:10:03.922Z,5.20
2022-11-20T00:13:08.866Z,5.53
2022-11-20T00:16:16.449Z,4.20
2022-11-20T00:19:21.219Z,5.47
2022-11-20T00:22:25.931Z,5.72
2022-11-20T00:25:30.591Z,5.65
2022-11-20T00:28:35.503Z,5.80
2022-11-20T00:31:40.229Z,5.82
2022-11-20T00:34:44.766Z,6.45
2022-11-20T00:37:49.148Z,5.40
2022-11-20T00:41:04.203Z,5.78
2022-11-20T00:44:08.518Z,6.32
2022-11-20T00:47:12.805Z,6.25
2022-11-20T00:50:17.517Z,5.57
2022-11-20T00:53:23.200Z,5.38
2022-11-20T00:56:28.127Z,5.43
2022-11-20T00:59:32.655Z,5.70
2022-11-20T01:02:37.300Z,4.68
2022-11-20T01:05:42.000Z,5.90
2022-11-20T01:08:48.500Z,5.57
2022-11-20T01:11:53.063Z,5.65
2022-11-20T01:14:57.793Z,6.85
2022-11-20T01:18:02.697Z,5.78
2022-11-20T01:21:14.775Z,5.15
2022-11-20T01:24:21.976Z,5.50
2022-11-20T01:27:26.582Z,6.05
2022-11-20T01:30:31.085Z,6.07
2022-11-20T01:33:35.312Z,5.57
2022-11-20T01:36:40.596Z,6.80
2022-11-20T01:39:45.061Z,5.10
2022-11-20T01:43:24.338Z,5.90
2022-11-20T01:46:29.430Z,5.93
2022-11-20T01:49:52.291Z,6.45
2022-11-20T01:53:06.301Z,6.30
2022-11-20T01:56:14.565Z,6.18
2022-11-20T01:59:21.122Z,7.00
2022-11-20T02:02:26.640Z,6.68
2022-11-20T02:06:01.311Z,6.57
2022-11-20T02:09:05.922Z,6.55
2022-11-20T02:12:30.821Z,8.20
2022-11-20T02:15:45.122Z,6.50
2022-11-20T02:19:02.688Z,6.07
2022-11-20T02:22:26.094Z,5.70
2022-11-20T02:25:33.223Z,5.82
2022-11-20T02:28:38.355Z,4.57
2022-11-20T02:31:44.532Z,6.70
2022-11-20T02:34:49.051Z,6.93
2022-11-20T02:38:00.177Z,7.38
2022-11-20T02:41:04.810Z,6.60
2022-11-20T02:44:09.875Z,5.13
2022-11-20T02:47:14.342Z,6.03
2022-11-20T02:50:19.054Z,5.90
2022-11-20T02:53:23.723Z,5.68
2022-11-20T02:56:28.558Z,7.45
2022-11-20T02:59:33.040Z,5.93
2022-11-20T03:02:37.465Z,6.13
2022-11-20T03:05:42.010Z,6.10
2022-11-20T03:08:46.419Z,7.40
2022-11-20T03:11:51.028Z,5.85
2022-11-20T03:14:56.030Z,7.15
2022-11-20T03:18:00.632Z,6.78
2022-11-20T03:21:05.595Z,7.45
2022-11-20T03:24:10.147Z,6.63
2022-11-20T03:27:14.937Z,7.55
2022-11-20T03:30:19.509Z,7.93
2022-11-20T03:33:24.140Z,6.28
2022-11-20T03:36:29.096Z,6.78
2022-11-20T03:39:33.315Z,6.25
2022-11-20T03:42:46.661Z,6.00
2022-11-20T03:45:51.349Z,6.65
2022-11-20T03:48:56.594Z,5.93
2022-11-20T03:52:01.124Z,7.40
2022-11-20T03:55:07.665Z,6.22
2022-11-20T03:58:12.492Z,6.75
2022-11-20T04:01:27.365Z,5.82
2022-11-20T04:04:32.003Z,7.18
2022-11-20T04:07:36.534Z,7.00
2022-11-20T04:10:41.238Z,6.80
2022-11-20T04:13:58.261Z,5.78
2022-11-20T04:17:02.660Z,7.53
2022-11-20T04:20:07.887Z,6.00
2022-11-20T04:23:12.329Z,6.45
2022-11-20T04:26:17.287Z,7.18
2022-11-20T04:29:21.704Z,6.68
2022-11-20T04:32:26.109Z,6.60
2022-11-20T04:35:30.444Z,6.63
2022-11-20T04:38:35.247Z,6.63
2022-11-20T04:41:40.195Z,5.22
2022-11-20T04:44:44.530Z,7.00
2022-11-20T04:47:48.975Z,8.65
2022-11-20T04:50:54.169Z,6.55
2022-11-20T04:53:58.754Z,6.47
2022-11-20T04:57:03.658Z,5.53
2022-11-20T05:00:09.482Z,7.32
2022-11-20T05:03:13.969Z,7.10
2022-11-20T05:06:21.871Z,7.05
2022-11-20T05:09:26.454Z,7.18
2022-11-20T05:12:31.076Z,6.13
2022-11-20T05:15:35.662Z,5.72
2022-11-20T05:18:41.324Z,8.00
2022-11-20T05:21:45.574Z,7.45
2022-11-20T05:24:50.176Z,6.22
2022-11-20T05:27:54.947Z,7.05
2022-11-20T05:31:14.528Z,9.10
2022-11-20T05:34:19.172Z,6.65
2022-11-20T05:37:23.639Z,8.13
2022-11-20T05:40:28.402Z,8.13
2022-11-20T05:43:35.793Z,7.25
2022-11-20T05:46:40.508Z,7.78
2022-11-20T05:49:45.112Z,6.93
2022-11-20T05:52:49.474Z,6.97
2022-11-20T05:56:19.733Z,7.55
2022-11-20T05:59:24.236Z,7.53
2022-11-20T06:02:28.896Z,7.00
2022-11-20T06:05:34.941Z,6.90
2022-11-20T06:08:39.663Z,7.32
2022-11-20T06:11:44.001Z,6.40
2022-11-20T06:14:48.388Z,6.72
2022-11-20T06:17:56.330Z,7.50
2022-11-20T06:21:16.347Z,6.95
2022-11-20T06:24:20.923Z,7.13
2022-11-20T06:27:25.340Z,8.15
2022-11-20T06:30:29.765Z,8.15
2022-11-20T06:33:34.897Z,7.15
2022-11-20T06:36:39.652Z,7.65
2022-11-20T06:39:44.172Z,7.18
2022-11-20T06:42:48.691Z,8.68
2022-11-20T06:45:55.064Z,8.35
2022-11-20T06:48:59.810Z,7.60
2022-11-20T06:52:04.527Z,8.40
2022-11-20T06:55:09.333Z,7.55
2022-11-20T06:58:15.098Z,6.85
2022-11-20T07:01:20.183Z,7.43
2022-11-20T07:04:24.917Z,8.80
2022-11-20T07:07:30.405Z,8.80
2022-11-20T07:10:35.281Z,9.20
2022-11-20T07:13:39.815Z,8.25
2022-11-20T07:16:44.345Z,6.40
2022-11-20T07:19:49.197Z,7.80
2022-11-20T07:22:58.748Z,9.30
2022-11-20T07:26:09.893Z,8.85
2022-11-20T07:29:14.297Z,8.38
2022-11-20T07:32:18.867Z,7.93
2022-11-20T07:35:25.146Z,8.10
2022-11-20T07:38:30.712Z,8.15
2022-11-20T07:41:35.564Z,8.88
2022-11-20T07:44:40.549Z,8.27
2022-11-20T07:47:45.127Z,8.40
2022-11-20T07:50:49.689Z,8.13
2022-11-20T07:53:54.622Z,7.30
2022-11-20T07:56:59.346Z,8.30
2022-11-20T08:00:11.180Z,7.95
2022-11-20T08:03:24.326Z,7.70
2022-11-20T08:06:29.624Z,8.13
2022-11-20T08:09:34.071Z,7.57
2022-11-20T08:13:08.192Z,7.97
2022-11-20T08:16:13.138Z,7.28
2022-11-20T08:19:20.047Z,7.10
2022-11-20T08:22:25.733Z,7.25
2022-11-20T08:25:30.957Z,7.40
2022-11-20T08:28:35.227Z,7.13
2022-11-20T08:31:39.858Z,7.57
2022-11-20T08:34:44.676Z,7.22
2022-11-20T08:37:50.462Z,6.65
2022-11-20T08:41:17.727Z,8.68
2022-11-20T08:44:22.191Z,7.38
2022-11-20T08:47:26.708Z,8.63
2022-11-20T08:50:33.289Z,7.95
2022-11-20T08:53:39.550Z,6.78
2022-11-20T08:56:44.145Z,7.85
2022-11-20T09:00:05.720Z,8.80
2022-11-20T09:03:11.292Z,6.88
2022-11-20T09:06:16.749Z,6.82
2022-11-20T09:09:22.106Z,7.28
2022-11-20T09:12:26.881Z,8.88
2022-11-20T09:15:31.348Z,8.25
2022-11-20T09:18:39.863Z,7.50
2022-11-20T09:21:44.498Z,8.13
2022-11-20T09:24:49.029Z,8.48
2022-11-20T09:28:00.336Z,8.40
2022-11-20T09:31:09.916Z,10.02
2022-11-20T09:34:14.377Z,8.13
2022-11-20T09:37:19.246Z,10.18
2022-11-20T09:40:30.412Z,8.85
2022-11-20T09:44:02.853Z,8.93
2022-11-20T09:47:39.567Z,9.85
2022-11-20T09:51:04.364Z,8.93
2022-11-20T09:54:21.446Z,9.90
2022-11-20T09:57:37.104Z,8.35
2022-11-20T10:00:42.031Z,10.13
2022-11-20T10:04:19.210Z,9.52
2022-11-20T10:07:48.099Z,10.70
2022-11-20T10:11:21.293Z,8.32
2022-11-20T10:15:07.394Z,8.50
2022-11-20T10:18:59.362Z,8.45
2022-11-20T10:22:32.203Z,8.40
2022-11-20T10:25:53.316Z,10.18
2022-11-20T10:29:18.203Z,9.45
2022-11-20T10:32:29.232Z,9.27
2022-11-20T10:35:42.365Z,8.80
2022-11-20T10:38:55.593Z,10.65
2022-11-20T10:42:01.653Z,8.97
2022-11-20T10:45:26.359Z,10.27
2022-11-20T10:48:33.128Z,9.38
2022-11-20T10:52:21.422Z,10.10
2022-11-20T10:55:39.496Z,9.05
2022-11-20T10:58:59.950Z,8.77
2022-11-20T11:02:32.114Z,11.35
2022-11-20T11:05:47.483Z,9.95
2022-11-20T11:08:57.659Z,10.45
2022-11-20T11:12:06.949Z,10.88
2022-11-20T11:15:40.813Z,9.88
2022-11-20T11:18:45.444Z,9.43
2022-11-20T11:21:57.527Z,9.57
2022-11-20T11:25:03.281Z,12.43
2022-11-20T11:28:22.808Z,10.57
2022-11-20T11:31:31.927Z,12.13
2022-11-20T11:34:36.684Z,11.45
2022-11-20T11:37:41.386Z,12.52
2022-11-20T11:40:47.651Z,14.32
2022-11-20T11:44:17.213Z,13.90
2022-11-20T11:47:37.915Z,16.85
2022-11-20T11:50:51.368Z,16.75
2022-11-20T11:53:57.485Z,13.82
2022-11-20T11:57:11.658Z,15.45
2022-11-20T12:00:22.652Z,18.75
2022-11-20T12:03:43.604Z,15.23
2022-11-20T12:07:13.209Z,16.10
2022-11-20T12:10:42.324Z,18.13
2022-11-20T12:14:14.698Z,15.27
2022-11-20T12:17:20.039Z,15.75
2022-11-20T12:20:43.092Z,15.73
2022-11-20T12:24:38.432Z,14.10
2022-11-20T12:28:04.930Z,14.52
2022-11-20T12:31:39.528Z,18.95
2022-11-20T12:34:53.104Z,16.67
2022-11-20T12:38:16.726Z,16.30
2022-11-20T12:41:55.387Z,13.43
2022-11-20T12:45:32.976Z,16.35
2022-11-20T12:49:04.789Z,15.95
2022-11-20T12:52:26.601Z,16.27
2022-11-20T12:56:12.486Z,16.00
2022-11-20T12:59:31.759Z,15.02
2022-11-20T13:03:10.291Z,16.25
2022-11-20T13:06:19.363Z,14.25
2022-11-20T13:09:25.447Z,14.05
2022-11-20T13:12:45.440Z,15.52
2022-11-20T13:16:02.130Z,11.52
2022-11-20T13:19:13.190Z,12.07
2022-11-20T13:22:30.579Z,12.55
2022-11-20T13:25:41.403Z,14.55
2022-11-20T13:28:49.152Z,11.85
2022-11-20T13:32:21.596Z,12.32
2022-11-20T13:35:44.397Z,12.93
2022-11-20T13:38:52.586Z,13.55
2022-11-20T13:42:01.946Z,17.05
2022-11-20T13:45:24.386Z,17.77
2022-11-20T13:48:42.934Z,19.95
2022-11-20T13:51:59.617Z,17.50
2022-11-20T13:55:21.013Z,20.50
2022-11-20T13:58:44.127Z,23.52
2022-11-20T14:01:50.236Z,25.42
2022-11-20T14:05:01.820Z,19.20
2022-11-20T14:08:18.675Z,24.13
2022-11-20T14:11:26.710Z,22.55
2022-11-20T14:14:34.419Z,19.65
2022-11-20T14:17:39.254Z,19.75
2022-11-20T14:20:44.479Z,24.88
2022-11-20T14:23:48.930Z,22.02
2022-11-20T14:26:53.732Z,19.88
2022-11-20T14:30:03.194Z,26.90
2022-11-20T14:33:08.607Z,21.10
2022-11-20T14:36:21.608Z,21.52
2022-11-20T14:39:38.394Z,21.00
2022-11-20T14:42:45.399Z,20.35
2022-11-20T14:46:10.005Z,22.88
2022-11-20T14:49:14.852Z,19.40
2022-11-20T14:52:23.633Z,18.02
2022-11-20T14:55:28.519Z,17.65
2022-11-20T14:58:34.698Z,24.38
2022-11-20T15:01:39.161Z,23.05
2022-11-20T15:04:57.467Z,27.33
2022-11-20T15:08:11.533Z,27.00
2022-11-20T15:11:25.281Z,27.70
2022-11-20T15:14:56.345Z,26.25
2022-11-20T15:18:04.496Z,23.25
2022-11-20T15:21:27.608Z,27.63
2022-11-20T15:24:33.598Z,28.58
2022-11-20T15:27:38.551Z,23.27
2022-11-20T15:30:43.254Z,23.70
2022-11-20T15:33:49.037Z,23.63
2022-11-20T15:36:54.157Z,21.83
2022-11-20T15:39:58.961Z,20.88
2022-11-20T15:43:08.221Z,23.75
2022-11-20T15:46:18.975Z,23.52
2022-11-20T15:49:24.802Z,23.00
2022-11-20T15:52:40.194Z,22.73
2022-11-20T15:55:46.710Z,21.98
2022-11-20T15:58:51.475Z,24.60
2022-11-20T16:01:56.061Z,21.77
2022-11-20T16:05:00.474Z,21.45
2022-11-20T16:08:11.095Z,17.88
2022-11-20T16:11:18.903Z,23.55
2022-11-20T16:14:42.033Z,19.75
2022-11-20T16:17:46.625Z,23.85
2022-11-20T16:20:54.055Z,24.15
2022-11-20T16:24:00.137Z,30.30
2022-11-20T16:27:05.118Z,26.67
2022-11-20T16:30:10.998Z,28.52
2022-11-20T16:33:20.678Z,26.70
2022-11-20T16:36:28.549Z,28.15
2022-11-20T16:39:33.562Z,24.83
2022-11-20T16:42:38.752Z,27.15
2022-11-20T16:45:46.392Z,29.52
2022-11-20T16:49:14.044Z,28.92
2022-11-20T16:52:18.670Z,30.27
2022-11-20T16:55:24.453Z,31.40
2022-11-20T16:58:30.154Z,23.40
2022-11-20T17:01:40.104Z,26.88
2022-11-20T17:04:44.833Z,24.00
2022-11-20T17:07:52.233Z,23.70
2022-11-20T17:11:21.270Z,25.75
2022-11-20T17:14:29.930Z,24.20
2022-11-20T17:17:35.751Z,24.88
2022-11-20T17:20:40.551Z,28.48
2022-11-20T17:23:47.112Z,34.92
2022-11-20T17:26:51.763Z,35.53
2022-11-20T17:29:57.684Z,36.55
2022-11-20T17:33:02.402Z,30.83
2022-11-20T17:36:10.034Z,31.38
2022-11-20T17:39:16.604Z,28.92
2022-11-20T17:42:27.329Z,27.83
2022-11-20T17:45:31.952Z,29.98
2022-11-20T17:48:38.042Z,32.05
2022-11-20T17:51:42.573Z,26.17
2022-11-20T17:54:47.499Z,25.08
2022-11-20T17:57:57.016Z,26.77
2022-11-20T18:01:07.119Z,26.70
2022-11-20T18:04:12.637Z,19.88
2022-11-20T18:07:17.527Z,19.20
2022-11-20T18:10:22.391Z,16.48
2022-11-20T18:13:47.977Z,17.27
2022-11-20T18:16:56.370Z,16.45
2022-11-20T18:20:27.803Z,13.73
2022-11-20T18:26:30.114Z,21.45
2022-11-20T18:29:34.830Z,24.35
2022-11-20T18:32:40.103Z,26.20
2022-11-20T18:35:44.877Z,24.88
2022-11-20T18:38:51.689Z,23.70
2022-11-20T18:42:14.800Z,24.20
2022-11-20T18:45:19.334Z,19.77
2022-11-20T18:48:23.690Z,18.27
2022-11-20T18:51:28.055Z,19.10
2022-11-20T18:54:34.677Z,16.80
2022-11-20T18:57:39.358Z,14.75
2022-11-20T19:00:44.674Z,16.17
2022-11-20T19:03:49.032Z,12.73
2022-11-20T19:06:56.248Z,12.88
2022-11-20T19:10:03.632Z,12.25
2022-11-20T19:13:08.931Z,19.60
2022-11-20T19:16:17.981Z,16.95
2022-11-20T19:19:22.720Z,19.98
2022-11-20T19:22:27.604Z,30.70
2022-11-20T19:25:37.687Z,20.67
2022-11-20T19:28:43.524Z,18.23
2022-11-20T19:31:48.484Z,15.50
2022-11-20T19:34:53.345Z,14.40
2022-11-20T19:38:00.220Z,16.15
2022-11-20T19:41:09.712Z,14.20
2022-11-20T19:44:17.020Z,16.02
2022-11-20T19:47:22.961Z,19.02
2022-11-20T19:50:27.994Z,15.80
2022-11-20T19:53:32.527Z,15.13
2022-11-20T19:56:37.265Z,12.70
2022-11-20T19:59:41.782Z,11.90
2022-11-20T20:02:46.381Z,12.20
2022-11-20T20:05:50.981Z,13.82
2022-11-20T20:09:06.091Z,14.95
2022-11-20T20:12:10.638Z,14.40
2022-11-20T20:15:15.319Z,11.80
2022-11-20T20:18:20.118Z,12.20
2022-11-20T20:21:25.110Z,15.18
2022-11-20T20:24:29.717Z,17.35
2022-11-20T20:27:34.083Z,14.55
2022-11-20T20:30:38.682Z,13.45
2022-11-20T20:33:44.653Z,15.57
2022-11-20T20:36:49.124Z,15.63
2022-11-20T20:39:53.769Z,11.73
2022-11-20T20:42:58.505Z,15.63
2022-11-20T20:46:02.735Z,14.77
2022-11-20T20:49:08.001Z,11.57
2022-11-20T20:52:12.761Z,16.73
2022-11-20T20:55:17.861Z,12.82
2022-11-20T20:58:22.991Z,13.35
2022-11-20T21:01:30.626Z,15.27
2022-11-20T21:04:35.162Z,16.58
2022-11-20T21:07:59.771Z,16.23
2022-11-20T21:11:12.296Z,14.98
2022-11-20T21:14:16.933Z,17.00
2022-11-20T21:17:21.601Z,16.13
2022-11-20T21:20:44.352Z,12.27
2022-11-20T21:23:49.005Z,14.45
2022-11-20T21:26:54.681Z,14.88
2022-11-20T21:29:59.143Z,14.32
2022-11-20T21:33:04.068Z,16.15
2022-11-20T21:36:11.160Z,17.08
2022-11-20T21:39:17.099Z,15.90
2022-11-20T21:42:21.851Z,13.82
2022-11-20T21:45:26.255Z,13.68
2022-11-20T21:48:36.031Z,10.77
2022-11-20T21:51:40.495Z,11.07
2022-11-20T21:54:45.431Z,10.95
2022-11-20T21:57:50.220Z,12.38
2022-11-20T22:00:54.715Z,10.95
2022-11-20T22:04:02.260Z,12.07
2022-11-20T22:07:06.846Z,14.23
2022-11-20T22:10:18.492Z,11.77
2022-11-20T22:13:43.985Z,12.95
2022-11-20T22:16:51.166Z,12.15
2022-11-20T22:19:55.628Z,11.13
2022-11-20T22:23:00.187Z,10.88
2022-11-20T22:26:11.863Z,11.43
2022-11-20T22:29:20.878Z,11.35
2022-11-20T22:32:25.586Z,10.63
2022-11-20T22:35:30.499Z,12.35
2022-11-20T22:38:39.341Z,12.68
2022-11-20T22:41:44.492Z,11.95
2022-11-20T22:44:49.059Z,13.25
2022-11-20T22:47:53.812Z,11.45
2022-11-20T22:51:10.641Z,11.82
2022-11-20T22:54:15.389Z,11.73
2022-11-20T22:57:20.044Z,8.90
2022-11-20T23:00:24.618Z,12.00
2022-11-20T23:03:28.831Z,11.30
2022-11-20T23:06:34.443Z,10.50
2022-11-20T23:09:39.211Z,10.32
2022-11-20T23:12:44.011Z,9.82
2022-11-20T23:15:48.640Z,11.82
2022-11-20T23:19:03.699Z,9.82
2022-11-20T23:22:08.472Z,9.77
2022-11-20T23:25:13.244Z,11.88
2022-11-20T23:28:17.842Z,9.70
2022-11-20T23:31:22.637Z,9.98
2022-11-20T23:34:27.300Z,9.85
2022-11-20T23:37:32.165Z,10.65
2022-11-20T23:40:41.170Z,13.05
2022-11-20T23:43:46.210Z,10.95
2022-11-20T23:46:50.897Z,10.60
2022-11-20T23:49:56.676Z,10.57
2022-11-20T23:53:01.698Z,10.55
2022-11-20T23:56:06.267Z,11.23
2022-11-20T23:59:11.338Z,11.85
